Time,TemperatureF,DewpointF,PressureIn,WindDirection,WindDirectionDegrees,WindSpeedMPH,WindSpeedGustMPH,Humidity,HourlyPrecipIn,Conditions,Clouds,dailyrainin,SoftwareType,DateUTC
2013-05-17 00:04:00,53.8,43.0,29.81,West,277,10.0,18.0,68,0.00,,,0.00,weatherlink.com 1.10,2013-05-17 07:04:00,
2013-05-17 00:19:00,54.0,44.0,29.80,WSW,257,9.0,15.0,69,0.00,,,0.00,weatherlink.com 1.10,2013-05-17 07:19:00,
2013-05-17 00:34:00,54.3,42.0,29.80,West,262,11.0,18.0,64,0.00,,,0.00,weatherlink.com 1.10,2013-05-17 07:34:00,
2013-05-17 00:49:00,54.4,41.0,29.80,WSW,251,14.0,17.0,61,0.00,,,0.00,weatherlink.com 1.10,2013-05-17 07:49:00,
2013-05-17 01:04:00,54.5,42.0,29.80,West,259,13.0,20.0,62,0.00,,,0.00,weatherlink.com 1.10,2013-05-17 08:04:00,
2013-05-17 01:19:00,54.4,41.0,29.80,West,278,8.0,20.0,62,0.00,,,0.00,weatherlink.com 1.10,2013-05-17 08:19:00,
2013-05-17 01:35:00,54.6,42.0,29.80,West,266,4.0,19.0,62,0.00,,,0.00,weatherlink.com 1.10,2013-05-17 08:35:00,
2013-05-17 01:50:00,54.5,41.0,29.80,NW,306,6.0,19.0,61,0.00,,,0.00,weatherlink.com 1.10,2013-05-17 08:50:00,
2013-05-17 02:05:00,54.6,40.0,29.81,NW,317,21.0,21.0,59,0.00,,,0.00,weatherlink.com 1.10,2013-05-17 09:05:00,
2013-05-17 02:20:00,54.5,40.0,29.81,West,272,13.0,18.0,59,0.00,,,0.00,weatherlink.com 1.10,2013-05-17 09:20:00,
2013-05-17 02:35:00,54.4,40.0,29.80,West,264,8.0,19.0,59,0.00,,,0.00,weatherlink.com 1.10,2013-05-17 09:35:00,
2013-05-17 02:50:00,54.2,40.0,29.80,West,264,10.0,16.0,60,0.00,,,0.00,weatherlink.com 1.10,2013-05-17 09:50:00,
2013-05-17 03:05:00,54.1,40.0,29.80,West,264,8.0,19.0,60,0.00,,,0.00,weatherlink.com 1.10,2013-05-17 10:05:00,
2013-05-17 03:21:00,53.8,40.0,29.80,West,274,8.0,21.0,61,0.00,,,0.00,weatherlink.com 1.10,2013-05-17 10:21:00,
2013-05-17 03:35:00,53.8,40.0,29.80,NW,310,13.0,18.0,61,0.00,,,0.00,weatherlink.com 1.10,2013-05-17 10:35:00,
2013-05-17 03:50:00,53.5,40.0,29.80,West,272,18.0,20.0,61,0.00,,,0.00,weatherlink.com 1.10,2013-05-17 10:50:00,
2013-05-17 04:05:00,53.3,41.0,29.80,West,259,14.0,24.0,63,0.00,,,0.00,weatherlink.com 1.10,2013-05-17 11:05:00,
2013-05-17 04:20:00,52.9,42.0,29.80,West,275,12.0,25.0,66,0.00,,,0.00,weatherlink.com 1.10,2013-05-17 11:20:00,
2013-05-17 04:35:00,52.4,42.0,29.80,West,267,15.0,22.0,68,0.00,,,0.00,weatherlink.com 1.10,2013-05-17 11:35:00,
2013-05-17 04:50:00,52.5,42.0,29.80,NW,325,17.0,23.0,67,0.00,,,0.00,weatherlink.com 1.10,2013-05-17 11:50:00,
2013-05-17 05:05:00,52.5,42.0,29.80,WNW,286,11.0,20.0,67,0.00,,,0.00,weatherlink.com 1.10,2013-05-17 12:05:00,
2013-05-17 05:20:00,52.5,42.0,29.81,NW,321,13.0,25.0,67,0.00,,,0.00,weatherlink.com 1.10,2013-05-17 12:20:00,
2013-05-17 05:35:00,52.1,41.0,29.81,West,277,14.0,20.0,67,0.00,,,0.00,weatherlink.com 1.10,2013-05-17 12:35:00,
2013-05-17 05:50:00,51.9,42.0,29.82,WSW,257,12.0,25.0,70,0.00,,,0.00,weatherlink.com 1.10,2013-05-17 12:50:00,
2013-05-17 06:05:00,51.8,42.0,29.83,WNW,293,9.0,20.0,70,0.00,,,0.00,weatherlink.com 1.10,2013-05-17 13:05:00,
2013-05-17 06:20:00,51.5,43.0,29.83,NW,307,10.0,17.0,72,0.00,,,0.00,weatherlink.com 1.10,2013-05-17 13:20:00,
2013-05-17 06:35:00,52.2,43.0,29.83,WNW,290,8.0,21.0,71,0.00,,,0.00,weatherlink.com 1.10,2013-05-17 13:35:00,
2013-05-17 06:50:00,52.8,44.0,29.84,West,281,11.0,23.0,71,0.00,,,0.00,weatherlink.com 1.10,2013-05-17 13:50:00,
2013-05-17 07:05:00,53.4,43.0,29.84,WNW,294,8.0,19.0,69,0.00,,,0.00,weatherlink.com 1.10,2013-05-17 14:05:00,
2013-05-17 07:20:00,54.0,44.0,29.84,West,262,5.0,16.0,68,0.00,,,0.00,weatherlink.com 1.10,2013-05-17 14:20:00,
2013-05-17 07:35:00,54.6,43.0,29.84,NW,307,10.0,14.0,66,0.00,,,0.00,weatherlink.com 1.10,2013-05-17 14:35:00,
2013-05-17 07:50:00,55.6,43.0,29.85,West,269,8.0,14.0,64,0.00,,,0.00,weatherlink.com 1.10,2013-05-17 14:50:00,
2013-05-17 08:05:00,56.1,43.0,29.85,West,275,13.0,15.0,61,0.00,,,0.00,weatherlink.com 1.10,2013-05-17 15:05:00,
2013-05-17 08:20:00,56.8,42.0,29.85,WNW,301,17.0,22.0,59,0.00,,,0.00,weatherlink.com 1.10,2013-05-17 15:20:00,
2013-05-17 08:35:00,57.2,42.0,29.85,NW,322,20.0,27.0,58,0.00,,,0.00,weatherlink.com 1.10,2013-05-17 15:35:00,
2013-05-17 08:50:00,57.9,42.0,29.85,WNW,300,11.0,22.0,56,0.00,,,0.00,weatherlink.com 1.10,2013-05-17 15:50:00,
2013-05-17 09:05:00,58.9,42.0,29.85,WNW,296,11.0,19.0,54,0.00,,,0.00,weatherlink.com 1.10,2013-05-17 16:05:00,
2013-05-17 09:20:00,58.8,43.0,29.85,WSW,248,7.0,19.0,56,0.00,,,0.00,weatherlink.com 1.10,2013-05-17 16:20:00,
2013-05-17 09:35:00,58.7,44.0,29.84,West,276,9.0,18.0,58,0.00,,,0.00,weatherlink.com 1.10,2013-05-17 16:35:00,
2013-05-17 09:50:00,60.0,44.0,29.85,WNW,291,12.0,18.0,55,0.00,,,0.00,weatherlink.com 1.10,2013-05-17 16:50:00,
2013-05-17 10:05:00,60.7,43.0,29.85,WSW,257,9.0,17.0,53,0.00,,,0.00,weatherlink.com 1.10,2013-05-17 17:05:00,
2013-05-17 10:21:00,60.9,44.0,29.85,WNW,297,5.0,19.0,54,0.00,,,0.00,weatherlink.com 1.10,2013-05-17 17:21:00,
2013-05-17 10:36:00,61.7,42.0,29.85,West,259,13.0,22.0,49,0.00,,,0.00,weatherlink.com 1.10,2013-05-17 17:36:00,
2013-05-17 10:51:00,62.2,44.0,29.85,West,266,13.0,21.0,51,0.00,,,0.00,weatherlink.com 1.10,2013-05-17 17:51:00,
2013-05-17 11:06:00,63.2,42.0,29.85,SW,229,7.0,20.0,47,0.00,,,0.00,weatherlink.com 1.10,2013-05-17 18:06:00,
2013-05-17 11:21:00,64.1,42.0,29.85,West,265,8.0,20.0,44,0.00,,,0.00,weatherlink.com 1.10,2013-05-17 18:21:00,
2013-05-17 11:36:00,65.4,42.0,29.85,NW,304,13.0,28.0,42,0.00,,,0.00,weatherlink.com 1.10,2013-05-17 18:36:00,
2013-05-17 11:51:00,66.2,42.0,29.85,West,276,11.0,23.0,41,0.00,,,0.00,weatherlink.com 1.10,2013-05-17 18:51:00,
2013-05-17 12:06:00,66.2,43.0,29.84,NNW,347,7.0,16.0,43,0.00,,,0.00,weatherlink.com 1.10,2013-05-17 19:06:00,
2013-05-17 12:21:00,65.9,43.0,29.84,West,278,7.0,18.0,44,0.00,,,0.00,weatherlink.com 1.10,2013-05-17 19:21:00,
2013-05-17 12:36:00,66.2,43.0,29.85,NW,316,11.0,20.0,44,0.00,,,0.00,weatherlink.com 1.10,2013-05-17 19:36:00,
2013-05-17 12:51:00,66.4,44.0,29.84,West,264,8.0,21.0,45,0.00,,,0.00,weatherlink.com 1.10,2013-05-17 19:51:00,
2013-05-17 13:06:00,66.5,46.0,29.84,West,274,4.0,21.0,48,0.00,,,0.00,weatherlink.com 1.10,2013-05-17 20:06:00,
2013-05-17 13:21:00,66.8,45.0,29.84,WSW,252,12.0,20.0,46,0.00,,,0.00,weatherlink.com 1.10,2013-05-17 20:21:00,
2013-05-17 13:36:00,66.7,45.0,29.84,West,265,14.0,24.0,46,0.00,,,0.00,weatherlink.com 1.10,2013-05-17 20:36:00,
2013-05-17 13:51:00,66.8,46.0,29.85,West,277,14.0,21.0,47,0.00,,,0.00,weatherlink.com 1.10,2013-05-17 20:51:00,
2013-05-17 14:06:00,67.0,46.0,29.84,SW,235,16.0,20.0,47,0.00,,,0.00,weatherlink.com 1.10,2013-05-17 21:06:00,
2013-05-17 14:21:00,65.7,46.0,29.84,WNW,285,9.0,19.0,50,0.00,,,0.00,weatherlink.com 1.10,2013-05-17 21:21:00,
2013-05-17 14:36:00,64.4,47.0,29.84,West,277,12.0,21.0,53,0.00,,,0.00,weatherlink.com 1.10,2013-05-17 21:36:00,
2013-05-17 14:51:00,64.1,47.0,29.84,West,265,9.0,21.0,54,0.00,,,0.00,weatherlink.com 1.10,2013-05-17 21:51:00,
2013-05-17 15:06:00,63.9,47.0,29.84,NW,311,9.0,19.0,55,0.00,,,0.00,weatherlink.com 1.10,2013-05-17 22:06:00,
2013-05-17 15:21:00,63.9,48.0,29.85,WNW,283,8.0,19.0,57,0.00,,,0.00,weatherlink.com 1.10,2013-05-17 22:21:00,
2013-05-17 15:36:00,63.7,48.0,29.85,WNW,303,10.0,20.0,58,0.00,,,0.00,weatherlink.com 1.10,2013-05-17 22:36:00,
2013-05-17 15:51:00,64.4,49.0,29.84,WNW,283,17.0,21.0,58,0.00,,,0.00,weatherlink.com 1.10,2013-05-17 22:51:00,
2013-05-17 16:06:00,63.5,48.0,29.85,WNW,284,11.0,24.0,58,0.00,,,0.00,weatherlink.com 1.10,2013-05-17 23:06:00,
2013-05-17 16:21:00,62.4,49.0,29.85,WSW,257,13.0,22.0,61,0.00,,,0.00,weatherlink.com 1.10,2013-05-17 23:21:00,
2013-05-17 16:36:00,62.4,49.0,29.85,West,279,6.0,18.0,62,0.00,,,0.00,weatherlink.com 1.10,2013-05-17 23:36:00,
2013-05-17 16:51:00,61.3,48.0,29.85,WSW,245,16.0,18.0,63,0.00,,,0.00,weatherlink.com 1.10,2013-05-17 23:51:00,
2013-05-17 17:06:00,61.6,49.0,29.85,West,259,7.0,16.0,64,0.00,,,0.00,weatherlink.com 1.10,2013-05-18 00:06:00,
2013-05-17 17:21:00,60.6,49.0,29.85,West,259,14.0,20.0,66,0.00,,,0.00,weatherlink.com 1.10,2013-05-18 00:21:00,
2013-05-17 17:36:00,60.7,50.0,29.85,West,259,16.0,17.0,67,0.00,,,0.00,weatherlink.com 1.10,2013-05-18 00:36:00,
2013-05-17 17:51:00,60.4,49.0,29.85,West,272,13.0,19.0,67,0.00,,,0.00,weatherlink.com 1.10,2013-05-18 00:51:00,
2013-05-17 18:06:00,60.5,49.0,29.85,SW,229,12.0,18.0,67,0.00,,,0.00,weatherlink.com 1.10,2013-05-18 01:06:00,
2013-05-17 18:21:00,60.3,50.0,29.85,West,279,13.0,18.0,68,0.00,,,0.00,weatherlink.com 1.10,2013-05-18 01:21:00,
2013-05-17 18:36:00,59.6,50.0,29.85,West,275,12.0,18.0,70,0.00,,,0.00,weatherlink.com 1.10,2013-05-18 01:36:00,
2013-05-17 18:51:00,59.0,50.0,29.85,WSW,257,15.0,18.0,71,0.00,,,0.00,weatherlink.com 1.10,2013-05-18 01:51:00,
2013-05-17 19:06:00,58.4,49.0,29.85,WSW,251,9.0,19.0,72,0.00,,,0.00,weatherlink.com 1.10,2013-05-18 02:06:00,
2013-05-17 19:21:00,57.5,50.0,29.86,West,271,9.0,15.0,75,0.00,,,0.00,weatherlink.com 1.10,2013-05-18 02:21:00,
2013-05-17 19:36:00,56.9,49.0,29.86,WNW,285,7.0,18.0,76,0.00,,,0.00,weatherlink.com 1.10,2013-05-18 02:36:00,
2013-05-17 19:51:00,56.1,49.0,29.87,SW,231,12.0,17.0,78,0.00,,,0.00,weatherlink.com 1.10,2013-05-18 02:51:00,
2013-05-17 20:06:00,55.6,49.0,29.87,West,271,9.0,15.0,78,0.00,,,0.00,weatherlink.com 1.10,2013-05-18 03:06:00,
2013-05-17 20:21:00,55.0,49.0,29.87,South,174,8.0,17.0,79,0.00,,,0.00,weatherlink.com 1.10,2013-05-18 03:21:00,
2013-05-17 20:36:00,54.7,48.0,29.87,West,281,12.0,19.0,79,0.00,,,0.00,weatherlink.com 1.10,2013-05-18 03:36:00,
2013-05-17 20:51:00,54.5,48.0,29.87,SW,227,14.0,23.0,78,0.00,,,0.00,weatherlink.com 1.10,2013-05-18 03:51:00,
2013-05-17 21:06:00,54.7,47.0,29.88,WNW,295,6.0,17.0,76,0.00,,,0.00,weatherlink.com 1.10,2013-05-18 04:06:00,
2013-05-17 21:21:00,54.0,47.0,29.89,SW,217,6.0,13.0,78,0.00,,,0.00,weatherlink.com 1.10,2013-05-18 04:21:00,
2013-05-17 21:36:00,53.6,47.0,29.88,SW,225,12.0,16.0,79,0.00,,,0.00,weatherlink.com 1.10,2013-05-18 04:36:00,
2013-05-17 21:51:00,53.5,47.0,29.89,WSW,257,9.0,15.0,78,0.00,,,0.00,weatherlink.com 1.10,2013-05-18 04:51:00,
2013-05-17 22:06:00,53.6,46.0,29.90,West,262,3.0,15.0,76,0.00,,,0.00,weatherlink.com 1.10,2013-05-18 05:06:00,
2013-05-17 22:21:00,53.9,46.0,29.91,WSW,243,6.0,13.0,74,0.00,,,0.00,weatherlink.com 1.10,2013-05-18 05:21:00,
2013-05-17 22:36:00,55.7,42.0,29.90,WNW,300,11.0,19.0,60,0.00,,,0.00,weatherlink.com 1.10,2013-05-18 05:36:00,
2013-05-17 22:51:00,56.7,41.0,29.90,West,272,12.0,21.0,57,0.00,,,0.00,weatherlink.com 1.10,2013-05-18 05:51:00,
2013-05-17 23:06:00,57.1,40.0,29.90,West,265,15.0,23.0,53,0.00,,,0.00,weatherlink.com 1.10,2013-05-18 06:06:00,
2013-05-17 23:21:00,56.7,40.0,29.89,West,275,13.0,23.0,55,0.00,,,0.00,weatherlink.com 1.10,2013-05-18 06:21:00,
2013-05-17 23:36:00,56.4,41.0,29.89,WSW,256,17.0,24.0,56,0.00,,,0.00,weatherlink.com 1.10,2013-05-18 06:36:00,
2013-05-17 23:51:00,56.5,40.0,29.88,WSW,253,15.0,31.0,55,0.00,,,0.00,weatherlink.com 1.10,2013-05-18 06:51:00,